createdAt,value
2023-01-17T00:05:18.288Z,5.70
2023-01-17T00:10:25.754Z,5.58
2023-01-17T00:15:29.551Z,5.54
2023-01-17T00:20:50.925Z,5.56
2023-01-17T00:26:05.578Z,5.60
2023-01-17T00:31:09.054Z,5.60
2023-01-17T00:36:11.887Z,5.84
2023-01-17T00:41:14.765Z,5.56
2023-01-17T00:46:35.498Z,5.61
2023-01-17T00:51:57.145Z,5.73
2023-01-17T00:57:18.663Z,6.28
2023-01-17T01:02:39.886Z,6.44
2023-01-17T01:08:00.394Z,6.55
2023-01-17T01:13:21.266Z,6.63
2023-01-17T01:18:41.831Z,6.72
2023-01-17T01:24:02.480Z,6.69
2023-01-17T01:29:23.010Z,6.51
2023-01-17T01:34:24.888Z,6.70
2023-01-17T01:39:26.834Z,6.87
2023-01-17T01:44:49.721Z,6.84
2023-01-17T01:49:51.917Z,6.93
2023-01-17T01:55:00.894Z,6.65
2023-01-17T02:00:07.790Z,7.02
2023-01-17T02:05:16.913Z,7.04
2023-01-17T02:10:18.982Z,7.09
2023-01-17T02:15:26.282Z,7.11
2023-01-17T02:20:58.926Z,7.11
2023-01-17T02:26:31.229Z,7.05
2023-01-17T02:31:51.629Z,7.07
2023-01-17T02:37:11.911Z,7.07
2023-01-17T02:42:18.283Z,7.11
2023-01-17T02:47:26.795Z,7.18
2023-01-17T02:52:34.483Z,7.21
2023-01-17T02:57:55.101Z,7.24
2023-01-17T03:03:05.703Z,7.29
2023-01-17T03:08:08.162Z,7.30
2023-01-17T03:13:10.138Z,7.14
2023-01-17T03:18:15.094Z,7.38
2023-01-17T03:23:16.903Z,6.96
2023-01-17T03:28:18.730Z,7.06
2023-01-17T03:33:20.570Z,7.09
2023-01-17T03:38:22.492Z,7.10
2023-01-17T03:43:24.331Z,7.42
2023-01-17T03:48:26.139Z,7.46
2023-01-17T03:53:27.947Z,7.43
2023-01-17T03:58:29.792Z,7.42
2023-01-17T04:03:31.675Z,7.39
2023-01-17T04:08:33.518Z,7.36
2023-01-17T04:13:35.364Z,7.34
2023-01-17T04:18:37.290Z,7.33
2023-01-17T04:23:39.161Z,7.29
2023-01-17T04:28:41.012Z,7.24
2023-01-17T04:33:43.147Z,7.19
2023-01-17T04:38:44.978Z,7.21
2023-01-17T04:43:46.868Z,7.13
2023-01-17T04:48:48.707Z,7.22
2023-01-17T04:53:50.585Z,7.21
2023-01-17T04:58:52.408Z,7.20
2023-01-17T05:03:54.284Z,7.19
2023-01-17T05:08:56.133Z,7.11
2023-01-17T05:13:57.963Z,7.17
2023-01-17T05:18:59.802Z,7.19
2023-01-17T05:24:01.688Z,7.20
2023-01-17T05:29:03.623Z,7.16
2023-01-17T05:34:05.463Z,7.19
2023-01-17T05:39:07.381Z,7.10
2023-01-17T05:44:09.294Z,7.08
2023-01-17T05:49:11.149Z,6.83
2023-01-17T05:54:13.077Z,6.92
2023-01-17T05:59:17.233Z,6.92
2023-01-17T06:04:20.720Z,6.95
2023-01-17T06:09:22.648Z,6.89
2023-01-17T06:14:24.673Z,6.83
2023-01-17T06:19:26.668Z,6.78
2023-01-17T06:24:28.615Z,6.70
2023-01-17T06:29:30.542Z,6.63
2023-01-17T06:34:32.479Z,6.57
2023-01-17T06:39:34.595Z,6.54
2023-01-17T06:44:36.546Z,6.49
2023-01-17T06:49:38.416Z,6.49
2023-01-17T06:54:40.305Z,6.46
2023-01-17T06:59:42.180Z,6.47
2023-01-17T07:04:44.219Z,6.47
2023-01-17T07:09:46.264Z,6.41
2023-01-17T07:14:48.089Z,6.39
2023-01-17T07:19:50.022Z,6.38
2023-01-17T07:24:53.614Z,6.34
2023-01-17T07:29:55.586Z,6.35
2023-01-17T07:34:58.206Z,6.31
2023-01-17T07:40:02.542Z,6.30
2023-01-17T07:45:04.938Z,6.31
2023-01-17T07:50:07.916Z,6.28
2023-01-17T07:55:14.007Z,6.23
2023-01-17T08:00:16.468Z,6.22
2023-01-17T08:05:18.340Z,6.11
2023-01-17T08:10:20.456Z,6.10
2023-01-17T08:15:23.651Z,6.05
2023-01-17T08:20:27.991Z,6.02
2023-01-17T08:25:30.307Z,6.16
2023-01-17T08:30:32.139Z,6.48
2023-01-17T08:35:36.117Z,6.56
2023-01-17T08:40:38.333Z,6.65
2023-01-17T08:45:43.628Z,6.52
2023-01-17T08:50:46.037Z,6.68
2023-01-17T08:55:48.157Z,6.96
2023-01-17T09:00:50.141Z,7.23
2023-01-17T09:06:20.457Z,7.40
2023-01-17T09:11:22.277Z,7.22
2023-01-17T09:16:24.334Z,6.95
2023-01-17T09:21:26.958Z,6.85
2023-01-17T09:26:30.081Z,6.91
2023-01-17T09:31:31.961Z,6.91
2023-01-17T09:36:34.065Z,6.86
2023-01-17T09:41:44.997Z,6.91
2023-01-17T09:46:50.129Z,7.17
2023-01-17T09:51:53.834Z,7.31
2023-01-17T09:57:40.586Z,7.43
2023-01-17T10:02:57.455Z,7.62
2023-01-17T10:08:36.759Z,7.74
2023-01-17T10:14:01.403Z,7.71
2023-01-17T10:19:37.177Z,7.56
2023-01-17T10:25:01.501Z,7.52
2023-01-17T10:30:22.806Z,7.61
2023-01-17T10:35:33.459Z,7.50
2023-01-17T10:40:46.735Z,7.36
2023-01-17T10:45:54.449Z,7.32
2023-01-17T10:51:10.839Z,7.27
2023-01-17T10:56:17.423Z,7.16
2023-01-17T11:01:21.037Z,7.11
2023-01-17T11:06:25.720Z,7.01
2023-01-17T11:11:36.321Z,7.02
2023-01-17T11:16:38.575Z,7.00
2023-01-17T11:21:50.291Z,6.99
2023-01-17T11:26:52.619Z,6.87
2023-01-17T11:31:56.344Z,6.79
2023-01-17T11:37:18.417Z,6.76
2023-01-17T11:42:38.461Z,6.81
2023-01-17T11:47:40.324Z,6.96
2023-01-17T11:52:42.317Z,7.03
2023-01-17T11:57:50.720Z,7.07
2023-01-17T12:03:15.347Z,7.24
2023-01-17T12:08:38.669Z,7.34
2023-01-17T12:14:00.863Z,7.38
2023-01-17T12:19:18.581Z,7.49
2023-01-17T12:24:32.602Z,7.55
2023-01-17T12:29:49.533Z,7.60
2023-01-17T12:35:12.340Z,7.49
2023-01-17T12:40:23.611Z,7.57
2023-01-17T12:45:34.577Z,8.05
2023-01-17T12:50:39.128Z,9.26
2023-01-17T12:56:11.268Z,11.31
2023-01-17T13:01:28.495Z,13.60
2023-01-17T13:07:00.707Z,15.27
2023-01-17T13:12:10.626Z,15.28
2023-01-17T13:17:37.463Z,16.61
2023-01-17T13:22:40.768Z,18.29
2023-01-17T13:28:24.412Z,19.16
2023-01-17T13:33:50.131Z,19.91
2023-01-17T13:38:57.719Z,21.33
2023-01-17T13:44:21.062Z,22.09
2023-01-17T13:49:34.191Z,22.21
2023-01-17T13:54:47.679Z,22.97
2023-01-17T13:59:50.341Z,22.07
2023-01-17T14:05:21.461Z,21.59
2023-01-17T14:10:32.383Z,21.94
2023-01-17T14:15:49.916Z,20.48
2023-01-17T14:21:08.018Z,20.25
2023-01-17T14:26:21.625Z,19.25
2023-01-17T14:31:24.705Z,16.68
2023-01-17T14:36:26.691Z,13.98
2023-01-17T14:41:29.743Z,12.02
2023-01-17T14:46:32.692Z,10.65
2023-01-17T14:51:35.592Z,9.95
2023-01-17T14:56:37.719Z,9.36
2023-01-17T15:01:41.060Z,9.11
2023-01-17T15:06:44.009Z,8.97
2023-01-17T15:11:48.242Z,8.97
2023-01-17T15:16:52.185Z,8.95
2023-01-17T15:21:54.836Z,8.99
2023-01-17T15:26:56.859Z,9.07
2023-01-17T15:32:01.649Z,9.08
2023-01-17T15:37:08.047Z,8.89
2023-01-17T15:42:21.060Z,8.68
2023-01-17T15:47:33.739Z,8.39
2023-01-17T15:52:49.365Z,8.21
2023-01-17T15:57:51.185Z,8.05
2023-01-17T16:02:58.981Z,7.91
2023-01-17T16:08:04.448Z,7.75
2023-01-17T16:13:07.980Z,7.64
2023-01-17T16:18:24.672Z,7.37
2023-01-17T16:23:27.862Z,7.06
2023-01-17T16:28:29.690Z,6.85
2023-01-17T16:33:31.522Z,6.69
2023-01-17T16:38:33.408Z,6.66
2023-01-17T16:43:35.304Z,6.63
2023-01-17T16:48:37.917Z,6.57
2023-01-17T16:53:39.815Z,6.45
2023-01-17T16:58:41.803Z,6.25
2023-01-17T17:03:44.605Z,6.10
2023-01-17T17:08:46.487Z,6.02
2023-01-17T17:13:49.965Z,5.97
2023-01-17T17:19:00.427Z,5.73
2023-01-17T17:24:02.621Z,5.55
2023-01-17T17:29:06.129Z,5.32
2023-01-17T17:34:10.712Z,5.19
2023-01-17T17:39:14.997Z,5.12
2023-01-17T17:44:17.838Z,5.19
2023-01-17T17:49:21.883Z,5.29
2023-01-17T17:54:24.799Z,5.33
2023-01-17T17:59:26.740Z,5.37
2023-01-17T18:04:28.670Z,5.27
2023-01-17T18:09:30.672Z,5.03
2023-01-17T18:14:32.622Z,4.90
2023-01-17T18:19:34.441Z,4.75
2023-01-17T18:24:36.271Z,4.73
2023-01-17T18:29:38.117Z,4.63
2023-01-17T18:34:41.631Z,4.62
2023-01-17T18:39:43.922Z,4.46
2023-01-17T18:44:45.760Z,4.40
2023-01-17T18:49:47.597Z,4.42
2023-01-17T18:54:49.438Z,4.22
2023-01-17T18:59:51.296Z,4.14
2023-01-17T19:04:53.086Z,3.99
2023-01-17T19:09:54.994Z,3.80
2023-01-17T19:14:56.772Z,3.69
2023-01-17T19:19:58.573Z,3.58
2023-01-17T19:25:00.456Z,3.52
2023-01-17T19:30:02.293Z,3.49
2023-01-17T19:35:04.318Z,3.52
2023-01-17T19:40:08.368Z,3.40
2023-01-17T19:45:12.348Z,3.42
2023-01-17T19:50:15.050Z,3.32
2023-01-17T19:55:17.810Z,3.35
2023-01-17T20:00:24.040Z,3.37
2023-01-17T20:05:29.147Z,3.39
2023-01-17T20:10:31.421Z,3.25
2023-01-17T20:15:34.368Z,3.24
2023-01-17T20:20:39.588Z,3.21
2023-01-17T20:25:59.115Z,3.19
2023-01-17T20:31:15.018Z,3.26
2023-01-17T20:36:17.965Z,3.29
2023-01-17T20:41:24.198Z,3.17
2023-01-17T20:46:29.150Z,3.10
2023-01-17T20:51:34.474Z,3.02
2023-01-17T20:56:37.845Z,3.01
2023-01-17T21:01:40.294Z,2.94
2023-01-17T21:06:44.127Z,2.77
2023-01-17T21:11:46.066Z,2.61
2023-01-17T21:16:47.980Z,2.55
2023-01-17T21:21:51.199Z,2.53
2023-01-17T21:26:53.023Z,2.56
2023-01-17T21:31:55.974Z,2.53
2023-01-17T21:36:57.825Z,2.42
2023-01-17T21:41:59.695Z,2.50
2023-01-17T21:47:02.007Z,2.56
2023-01-17T21:52:04.258Z,2.45
2023-01-17T21:57:24.976Z,2.37
2023-01-17T22:02:27.029Z,2.27
2023-01-17T22:07:29.274Z,2.24
2023-01-17T22:12:31.260Z,2.19
2023-01-17T22:17:33.126Z,2.06
2023-01-17T22:22:35.217Z,2.08
2023-01-17T22:27:37.060Z,2.09
2023-01-17T22:32:39.746Z,2.09
2023-01-17T22:37:41.715Z,2.16
2023-01-17T22:42:44.116Z,2.37
2023-01-17T22:47:46.136Z,2.47
2023-01-17T22:52:48.041Z,2.48
2023-01-17T22:57:50.216Z,2.50
2023-01-17T23:02:52.159Z,2.44
2023-01-17T23:07:54.134Z,2.35
2023-01-17T23:12:56.310Z,2.30
2023-01-17T23:18:16.899Z,2.30
2023-01-17T23:23:18.698Z,2.48
2023-01-17T23:28:20.904Z,2.63
2023-01-17T23:33:22.843Z,2.81
2023-01-17T23:38:29.740Z,2.98
2023-01-17T23:43:32.994Z,3.10
2023-01-17T23:48:34.818Z,3.14
2023-01-17T23:53:38.445Z,3.16
2023-01-17T23:58:40.592Z,3.20
